Карточка аэропорта URRP

Внимание!
Информация на этой странице в стадии наполнения.
Если вы не увидели какой-то информации, или заметили неточность - пожалуйста сообщите нам!
Спасибо!
Команда RU-STAFF
Название аэропортаПлатов
Название аэропорта (англ.)Platov
Превышение282 ft. (86 m.)
Координаты47°29.634', 39°55.482'
Высота перехода3500 ft
Эшелон переходаFL50 (QNH >= 996); FL60 (QNH < 996)
Коды ответчика1001-1017
Зона ОрВДРостов-на-Дону РПИ (URRV)
Данные METARURRP 250900Z 10003MPS CAVOK 28/11 Q1006 R05/CLRD70 NOSIG RMK QFE750/1000
Проноз погоды (TAF)URRP 250756Z 2509/2609 04003G12MPS 9999 SCT030CB TX29/2512Z TN16/2602Z TEMPO 2509/2518 13003G12MPS TEMPO 2518/2609 33003G12MPS
NOTAMshow/hide NOTAM
AWOS   TABLE

Информация о ВПП

ВПП Длина ВПП (м.) Покрытие Курс ВПП Частота ILS
233900Цементобетон226110.9
053900Цементобетон46111.5

Диспетчерские позиции

Позывной Наименование органа УВД Частота
URRP_APPПлатов-подход128.2
URRP_DELПлатов-деливери127.1
URRP_TWRПлатов-Вышка119.7
URRP_GNDПлатов - руление119.0
URRP_R_APPПлатов - Круг121.2



Спутниковое изображение